createdAt,value
2022-07-30T00:00:38.958Z,9.50
2022-07-30T00:01:38.861Z,8.20
2022-07-30T00:02:38.609Z,10.30
2022-07-30T00:03:38.601Z,10.90
2022-07-30T00:04:38.528Z,8.80
2022-07-30T00:05:38.517Z,10.90
2022-07-30T00:06:39.229Z,9.50
2022-07-30T00:07:38.540Z,10.90
2022-07-30T00:08:39.146Z,9.20
2022-07-30T00:09:38.787Z,11.30
2022-07-30T00:10:38.828Z,10.40
2022-07-30T00:11:39.376Z,13.70
2022-07-30T00:12:38.517Z,9.40
2022-07-30T00:13:38.468Z,10.70
2022-07-30T00:14:38.465Z,10.00
2022-07-30T00:15:38.446Z,11.00
2022-07-30T00:16:38.524Z,10.70
2022-07-30T00:17:38.547Z,13.00
2022-07-30T00:18:38.436Z,9.90
2022-07-30T00:19:38.457Z,8.50
2022-07-30T00:20:38.423Z,10.10
2022-07-30T00:21:39.349Z,11.40
2022-07-30T00:22:38.438Z,10.00
2022-07-30T00:23:38.449Z,11.10
2022-07-30T00:24:38.715Z,9.90
2022-07-30T00:25:38.585Z,11.00
2022-07-30T00:26:38.806Z,11.10
2022-07-30T00:27:39.277Z,10.30
2022-07-30T00:28:39.185Z,11.40
2022-07-30T00:29:38.355Z,10.60
2022-07-30T00:30:38.404Z,12.60
2022-07-30T00:31:38.359Z,11.70
2022-07-30T00:32:38.354Z,10.70
2022-07-30T00:33:38.353Z,10.10
2022-07-30T00:34:38.326Z,10.50
2022-07-30T00:35:38.325Z,12.80
2022-07-30T00:36:38.673Z,11.50
2022-07-30T00:37:38.304Z,9.00
2022-07-30T00:38:38.325Z,10.40
2022-07-30T00:39:38.346Z,9.40
2022-07-30T00:40:38.285Z,11.10
2022-07-30T00:41:38.277Z,9.90
2022-07-30T00:42:38.553Z,10.20
2022-07-30T00:43:38.544Z,9.90
2022-07-30T00:44:41.148Z,10.00
2022-07-30T00:45:38.262Z,11.30
2022-07-30T00:46:38.253Z,10.00
2022-07-30T00:47:38.233Z,10.30
2022-07-30T00:48:38.359Z,10.40
2022-07-30T00:49:42.589Z,11.20
2022-07-30T00:50:38.213Z,11.00
2022-07-30T00:51:38.212Z,10.90
2022-07-30T00:52:38.205Z,10.50
2022-07-30T00:53:39.094Z,11.00
2022-07-30T00:54:38.233Z,9.80
2022-07-30T00:55:39.133Z,11.60
2022-07-30T00:56:38.173Z,11.60
2022-07-30T00:57:39.299Z,10.70
2022-07-30T00:58:38.252Z,13.20
2022-07-30T00:59:38.154Z,8.70
2022-07-30T01:00:38.152Z,7.70
2022-07-30T01:01:38.923Z,11.50
2022-07-30T01:02:38.481Z,10.70
2022-07-30T01:03:38.222Z,10.40
2022-07-30T01:04:38.262Z,11.60
2022-07-30T01:05:38.702Z,11.20
2022-07-30T01:06:38.129Z,10.40
2022-07-30T01:07:38.175Z,9.20
2022-07-30T01:08:38.122Z,12.60
2022-07-30T01:09:38.124Z,11.30
2022-07-30T01:10:38.081Z,10.30
2022-07-30T01:11:38.392Z,10.10
2022-07-30T01:12:38.072Z,10.30
2022-07-30T01:13:38.098Z,10.50
2022-07-30T01:14:38.059Z,10.60
2022-07-30T01:15:38.044Z,12.30
2022-07-30T01:16:38.378Z,10.70
2022-07-30T01:17:38.709Z,8.70
2022-07-30T01:18:38.759Z,10.70
2022-07-30T01:19:38.049Z,10.20
2022-07-30T01:20:38.370Z,12.10
2022-07-30T01:21:38.019Z,12.00
2022-07-30T01:22:38.081Z,9.90
2022-07-30T01:23:38.160Z,11.20
2022-07-30T01:24:38.179Z,12.40
2022-07-30T01:25:37.968Z,11.10
2022-07-30T01:26:37.962Z,9.60
2022-07-30T01:27:38.341Z,10.60
2022-07-30T01:28:37.968Z,11.50
2022-07-30T01:29:37.959Z,12.30
2022-07-30T01:30:37.939Z,9.40
2022-07-30T01:31:37.938Z,11.10
2022-07-30T01:32:37.928Z,11.40
2022-07-30T01:33:37.919Z,12.90
2022-07-30T01:34:37.979Z,9.40
2022-07-30T01:35:38.628Z,11.60
2022-07-30T01:36:37.897Z,11.70
2022-07-30T01:37:37.899Z,14.10
2022-07-30T01:38:37.879Z,13.00
2022-07-30T01:39:38.029Z,9.50
2022-07-30T01:40:37.868Z,13.10
2022-07-30T01:41:37.869Z,11.30
2022-07-30T01:42:37.849Z,11.20
2022-07-30T01:43:37.856Z,11.60
2022-07-30T01:44:38.048Z,12.60
2022-07-30T01:45:42.324Z,11.20
2022-07-30T01:46:37.838Z,13.00
2022-07-30T01:47:37.827Z,10.70
2022-07-30T01:48:37.807Z,13.50
2022-07-30T01:49:38.048Z,13.00
2022-07-30T01:50:37.820Z,11.50
2022-07-30T01:51:37.951Z,11.30
2022-07-30T01:52:37.798Z,10.30
2022-07-30T01:53:37.788Z,13.40
2022-07-30T01:54:37.827Z,12.10
2022-07-30T01:55:37.786Z,10.80
2022-07-30T01:56:38.194Z,12.30
2022-07-30T01:57:37.750Z,12.10
2022-07-30T01:58:37.745Z,11.40
2022-07-30T01:59:38.156Z,10.70
2022-07-30T02:00:37.822Z,10.90
2022-07-30T02:01:38.695Z,11.50
2022-07-30T02:02:37.966Z,11.90
2022-07-30T02:03:38.304Z,11.30
2022-07-30T02:04:38.225Z,10.80
2022-07-30T02:05:38.268Z,12.50
2022-07-30T02:06:37.708Z,11.60
2022-07-30T02:07:37.707Z,12.20
2022-07-30T02:08:37.684Z,10.70
2022-07-30T02:09:37.856Z,13.50
2022-07-30T02:10:37.675Z,12.60
2022-07-30T02:11:37.657Z,11.60
2022-07-30T02:12:37.655Z,14.00
2022-07-30T02:13:37.646Z,13.20
2022-07-30T02:14:37.644Z,11.30
2022-07-30T02:15:37.663Z,13.00
2022-07-30T02:16:37.682Z,13.60
2022-07-30T02:17:39.559Z,12.70
2022-07-30T02:18:39.610Z,13.50
2022-07-30T02:19:37.742Z,11.50
2022-07-30T02:20:38.385Z,12.30
2022-07-30T02:21:37.594Z,12.00
2022-07-30T02:22:37.594Z,10.50
2022-07-30T02:23:37.643Z,10.90
2022-07-30T02:24:37.672Z,10.80
2022-07-30T02:25:38.023Z,12.30
2022-07-30T02:26:37.612Z,13.40
2022-07-30T02:27:38.256Z,12.30
2022-07-30T02:28:37.583Z,12.90
2022-07-30T02:29:37.542Z,12.30
2022-07-30T02:30:37.704Z,13.10
2022-07-30T02:31:38.070Z,12.20
2022-07-30T02:32:37.524Z,12.10
2022-07-30T02:33:37.513Z,13.40
2022-07-30T02:34:38.083Z,15.90
2022-07-30T02:35:38.503Z,14.20
2022-07-30T02:36:38.411Z,11.10
2022-07-30T02:37:43.057Z,10.90
2022-07-30T02:38:37.513Z,12.20
2022-07-30T02:39:37.503Z,11.30
2022-07-30T02:40:38.291Z,13.60
2022-07-30T02:41:38.453Z,15.00
2022-07-30T02:42:37.444Z,12.00
2022-07-30T02:43:37.442Z,14.20
2022-07-30T02:44:37.763Z,14.50
2022-07-30T02:45:38.141Z,14.80
2022-07-30T02:46:37.454Z,12.10
2022-07-30T02:47:38.031Z,14.50
2022-07-30T02:48:37.416Z,13.60
2022-07-30T02:49:37.566Z,13.60
2022-07-30T02:50:38.351Z,12.20
2022-07-30T02:51:38.052Z,14.90
2022-07-30T02:52:37.389Z,12.60
2022-07-30T02:53:37.372Z,13.30
2022-07-30T02:54:37.471Z,13.90
2022-07-30T02:55:37.520Z,14.40
2022-07-30T02:56:37.550Z,12.60
2022-07-30T02:57:37.349Z,13.80
2022-07-30T02:58:37.341Z,10.90
2022-07-30T02:59:37.704Z,12.40
2022-07-30T03:00:37.634Z,14.50
2022-07-30T03:01:37.846Z,13.90
2022-07-30T03:02:37.321Z,13.30
2022-07-30T03:03:37.312Z,12.30
2022-07-30T03:04:37.297Z,11.80
2022-07-30T03:05:37.308Z,13.80
2022-07-30T03:06:37.281Z,14.00
2022-07-30T03:07:37.278Z,13.10
2022-07-30T03:08:37.489Z,14.20
2022-07-30T03:09:51.132Z,14.90
2022-07-30T03:10:37.491Z,14.40
2022-07-30T03:11:37.251Z,13.30
2022-07-30T03:12:37.250Z,17.10
2022-07-30T03:13:37.239Z,13.70
2022-07-30T03:14:37.229Z,13.60
2022-07-30T03:15:39.120Z,13.60
2022-07-30T03:16:37.252Z,16.30
2022-07-30T03:17:37.211Z,14.70
2022-07-30T03:18:37.204Z,13.50
2022-07-30T03:19:37.419Z,14.00
2022-07-30T03:20:38.031Z,14.30
2022-07-30T03:21:37.215Z,14.40
2022-07-30T03:22:37.185Z,14.90
2022-07-30T03:23:37.167Z,15.20
2022-07-30T03:24:37.161Z,13.30
2022-07-30T03:25:37.157Z,14.20
2022-07-30T03:26:37.167Z,15.70
2022-07-30T03:27:37.154Z,13.20
2022-07-30T03:28:37.148Z,13.70
2022-07-30T03:29:37.128Z,12.40
2022-07-30T03:30:37.126Z,14.90
2022-07-30T03:31:37.936Z,14.20
2022-07-30T03:32:37.116Z,11.90
2022-07-30T03:33:38.818Z,16.00
2022-07-30T03:34:37.099Z,14.70
2022-07-30T03:35:37.078Z,13.20
2022-07-30T03:36:37.097Z,16.00
2022-07-30T03:37:37.076Z,13.50
2022-07-30T03:38:37.076Z,13.10
2022-07-30T03:39:37.096Z,13.90
2022-07-30T03:40:37.217Z,15.00
2022-07-30T03:41:37.065Z,15.20
2022-07-30T03:42:37.056Z,14.00
2022-07-30T03:43:37.037Z,16.90
2022-07-30T03:44:37.395Z,15.40
2022-07-30T03:45:37.025Z,15.40
2022-07-30T03:46:37.085Z,15.40
2022-07-30T03:47:37.005Z,11.40
2022-07-30T03:48:37.005Z,14.70
2022-07-30T03:49:36.994Z,13.10
2022-07-30T03:50:37.005Z,15.20
2022-07-30T03:51:36.997Z,16.40
2022-07-30T03:52:36.994Z,14.00
2022-07-30T03:53:36.965Z,16.70
2022-07-30T03:54:36.963Z,14.30
2022-07-30T03:55:36.966Z,14.80
2022-07-30T03:56:37.895Z,17.00
2022-07-30T03:57:36.938Z,15.00
2022-07-30T03:58:36.935Z,14.90
2022-07-30T03:59:37.695Z,15.70
2022-07-30T04:00:37.395Z,15.40
2022-07-30T04:01:38.022Z,16.20
2022-07-30T04:02:38.365Z,14.90
2022-07-30T04:03:37.008Z,15.60
2022-07-30T04:04:37.801Z,14.10
2022-07-30T04:05:37.599Z,19.20
2022-07-30T04:06:37.545Z,16.00
2022-07-30T04:07:44.887Z,15.70
2022-07-30T04:08:36.875Z,15.00
2022-07-30T04:09:37.001Z,14.20
2022-07-30T04:10:37.043Z,14.30
2022-07-30T04:11:41.183Z,14.30
2022-07-30T04:12:36.863Z,13.70
2022-07-30T04:13:36.824Z,15.80
2022-07-30T04:14:36.833Z,14.80
2022-07-30T04:16:35.494Z,12.50
2022-07-30T04:16:40.439Z,14.30
2022-07-30T04:17:37.361Z,19.00
2022-07-30T04:18:36.802Z,15.00
2022-07-30T04:19:36.798Z,14.30
2022-07-30T04:20:36.915Z,16.20
2022-07-30T04:21:37.281Z,14.70
2022-07-30T04:22:37.002Z,16.30
2022-07-30T04:24:04.574Z,16.20
2022-07-30T04:24:36.781Z,14.10
2022-07-30T04:25:36.754Z,14.40
2022-07-30T04:26:36.801Z,14.90
2022-07-30T04:27:36.820Z,14.80
2022-07-30T04:28:36.734Z,15.20
2022-07-30T04:29:36.721Z,15.70
2022-07-30T04:30:36.731Z,15.00
2022-07-30T04:31:38.354Z,16.90
2022-07-30T04:32:36.732Z,14.70
2022-07-30T04:33:36.721Z,15.30
2022-07-30T04:34:37.100Z,15.10
2022-07-30T04:35:51.292Z,15.30
2022-07-30T04:36:36.693Z,16.20
2022-07-30T04:37:36.689Z,15.20
2022-07-30T04:38:36.930Z,17.40
2022-07-30T04:39:36.661Z,16.80
2022-07-30T04:40:36.650Z,17.30
2022-07-30T04:41:48.875Z,16.60
2022-07-30T04:42:36.701Z,13.70
2022-07-30T04:43:36.658Z,18.60
2022-07-30T04:44:36.631Z,15.00
2022-07-30T04:45:36.752Z,18.30
2022-07-30T04:46:36.650Z,13.80
2022-07-30T04:47:36.849Z,15.40
2022-07-30T04:48:36.600Z,17.80
2022-07-30T04:49:36.579Z,15.70
2022-07-30T04:50:36.579Z,14.40
2022-07-30T04:51:36.568Z,14.80
2022-07-30T04:52:36.598Z,17.40
2022-07-30T04:53:36.560Z,13.90
2022-07-30T04:54:36.559Z,14.40
2022-07-30T04:55:36.540Z,16.10
2022-07-30T04:56:36.550Z,15.10
2022-07-30T04:57:36.719Z,14.30
2022-07-30T04:58:36.537Z,17.00
2022-07-30T04:59:36.532Z,17.00
2022-07-30T05:00:40.778Z,15.30
2022-07-30T05:01:40.451Z,14.20
2022-07-30T05:02:36.538Z,19.40
2022-07-30T05:03:37.364Z,16.40
2022-07-30T05:04:36.489Z,16.90
2022-07-30T05:05:36.549Z,16.60
2022-07-30T05:06:36.607Z,12.90
2022-07-30T05:07:36.518Z,14.90
2022-07-30T05:08:36.468Z,14.40
2022-07-30T05:09:36.448Z,13.40
2022-07-30T05:10:36.437Z,14.20
2022-07-30T05:11:36.430Z,15.40
2022-07-30T05:12:36.668Z,16.20
2022-07-30T05:13:38.501Z,14.30
2022-07-30T05:14:36.418Z,16.80
2022-07-30T05:15:37.326Z,14.80
2022-07-30T05:16:36.424Z,15.80
2022-07-30T05:17:36.448Z,16.50
2022-07-30T05:18:36.396Z,15.90
2022-07-30T05:19:36.377Z,15.00
2022-07-30T05:20:36.388Z,16.60
2022-07-30T05:21:36.367Z,16.00
2022-07-30T05:22:36.397Z,16.90
2022-07-30T05:23:36.624Z,15.10
2022-07-30T05:24:36.476Z,14.40
2022-07-30T05:25:36.741Z,17.10
2022-07-30T05:26:36.348Z,15.50
2022-07-30T05:27:36.387Z,17.70
2022-07-30T05:28:36.884Z,12.90
2022-07-30T05:29:36.933Z,14.50
2022-07-30T05:30:36.315Z,15.00
2022-07-30T05:31:38.133Z,15.80
2022-07-30T05:32:36.346Z,16.80
2022-07-30T05:33:38.843Z,16.10
2022-07-30T05:34:37.176Z,18.90
2022-07-30T05:35:36.276Z,16.30
2022-07-30T05:36:36.276Z,17.90
2022-07-30T05:37:36.795Z,16.90
2022-07-30T05:38:36.286Z,15.00
2022-07-30T05:39:36.255Z,15.20
2022-07-30T05:40:36.255Z,16.90
2022-07-30T05:41:36.255Z,15.10
2022-07-30T05:42:36.376Z,18.10
2022-07-30T05:43:36.542Z,15.10
2022-07-30T05:44:36.265Z,14.00
2022-07-30T05:45:36.211Z,16.30
2022-07-30T05:46:36.369Z,16.60
2022-07-30T05:47:36.665Z,18.00
2022-07-30T05:48:36.404Z,17.00
2022-07-30T05:49:36.794Z,18.30
2022-07-30T05:50:37.301Z,18.10
2022-07-30T05:51:36.682Z,16.60
2022-07-30T05:52:36.165Z,15.40
2022-07-30T05:53:36.183Z,16.40
2022-07-30T05:54:36.164Z,15.90
2022-07-30T05:55:36.371Z,15.40
2022-07-30T05:56:36.147Z,17.10
2022-07-30T05:57:36.153Z,17.30
2022-07-30T05:58:36.253Z,16.80
2022-07-30T05:59:36.122Z,17.60
2022-07-30T06:00:36.123Z,16.60
2022-07-30T06:01:36.150Z,15.00
2022-07-30T06:02:36.095Z,15.60
2022-07-30T06:03:36.102Z,15.60
2022-07-30T06:04:36.131Z,16.70
2022-07-30T06:05:36.113Z,18.10
2022-07-30T06:06:36.063Z,15.50
2022-07-30T06:07:36.061Z,15.00
2022-07-30T06:08:36.074Z,17.40
2022-07-30T06:09:37.343Z,15.90
2022-07-30T06:10:36.053Z,19.10
2022-07-30T06:11:36.039Z,17.10
2022-07-30T06:12:36.022Z,17.10
2022-07-30T06:13:36.042Z,17.60
2022-07-30T06:14:36.012Z,15.50
2022-07-30T06:15:36.111Z,16.10
2022-07-30T06:16:36.015Z,19.00
2022-07-30T06:17:41.468Z,15.20
2022-07-30T06:18:36.141Z,14.90
2022-07-30T06:19:35.994Z,18.50
2022-07-30T06:20:35.982Z,19.30
2022-07-30T06:22:05.460Z,17.90
2022-07-30T06:22:35.962Z,17.70
2022-07-30T06:23:35.971Z,18.80
2022-07-30T06:24:35.951Z,15.90
2022-07-30T06:25:35.941Z,17.40
2022-07-30T06:26:35.931Z,18.40
2022-07-30T06:27:39.601Z,18.30
2022-07-30T06:28:38.461Z,19.00
2022-07-30T06:29:35.979Z,16.90
2022-07-30T06:30:36.051Z,17.10
2022-07-30T06:31:35.931Z,17.10
2022-07-30T06:32:35.921Z,19.70
2022-07-30T06:33:35.920Z,18.90
2022-07-30T06:34:35.880Z,15.40
2022-07-30T06:35:35.879Z,17.70
2022-07-30T06:36:35.870Z,17.60
2022-07-30T06:38:04.966Z,18.90
2022-07-30T06:38:35.870Z,14.70
2022-07-30T06:39:58.046Z,18.00
2022-07-30T06:40:35.840Z,17.00
2022-07-30T06:41:35.890Z,17.30
2022-07-30T06:42:35.834Z,18.20
2022-07-30T06:43:36.130Z,18.10
2022-07-30T06:44:35.869Z,16.10
2022-07-30T06:45:36.012Z,16.20
2022-07-30T06:46:35.930Z,14.90
2022-07-30T06:47:35.810Z,18.10
2022-07-30T06:48:36.650Z,15.70
2022-07-30T06:49:36.079Z,15.60
2022-07-30T06:50:35.800Z,15.20
2022-07-30T06:51:35.811Z,15.70
2022-07-30T06:52:35.759Z,19.20
2022-07-30T06:53:42.284Z,17.10
2022-07-30T06:54:36.686Z,16.80
2022-07-30T06:55:35.769Z,17.00
2022-07-30T06:56:35.789Z,17.80
2022-07-30T06:57:40.195Z,16.20
2022-07-30T06:58:35.979Z,18.20
2022-07-30T06:59:56.770Z,18.50
2022-07-30T07:00:35.729Z,16.40
2022-07-30T07:01:35.803Z,17.10
2022-07-30T07:02:35.774Z,17.90
2022-07-30T07:03:39.853Z,17.60
2022-07-30T07:04:35.765Z,18.60
2022-07-30T07:05:35.689Z,18.30
2022-07-30T07:06:35.670Z,19.20
2022-07-30T07:07:41.796Z,17.10
2022-07-30T07:08:35.681Z,17.20
2022-07-30T07:09:35.737Z,16.40
2022-07-30T07:10:35.786Z,16.70
2022-07-30T07:11:35.806Z,16.00
2022-07-30T07:12:35.627Z,16.10
2022-07-30T07:13:35.837Z,16.00
2022-07-30T07:14:35.948Z,17.40
2022-07-30T07:15:36.889Z,17.90
2022-07-30T07:16:35.672Z,17.50
2022-07-30T07:17:35.615Z,15.40
2022-07-30T07:18:35.587Z,18.70
2022-07-30T07:20:01.493Z,19.30
2022-07-30T07:20:35.606Z,17.90
2022-07-30T07:21:35.578Z,18.50
2022-07-30T07:22:35.566Z,15.90
2022-07-30T07:23:41.864Z,15.50
2022-07-30T07:24:35.572Z,15.20
2022-07-30T07:25:35.564Z,16.00
2022-07-30T07:26:35.545Z,16.30
2022-07-30T07:27:36.135Z,15.20
2022-07-30T07:28:35.566Z,15.80
2022-07-30T07:29:36.017Z,15.20
2022-07-30T07:30:35.573Z,17.00
2022-07-30T07:32:05.136Z,17.40
2022-07-30T07:32:35.515Z,16.60
2022-07-30T07:33:35.486Z,16.10
2022-07-30T07:34:35.587Z,17.10
2022-07-30T07:35:45.553Z,17.80
2022-07-30T07:36:35.537Z,15.60
2022-07-30T07:37:35.455Z,19.10
2022-07-30T07:38:36.194Z,19.40
2022-07-30T07:39:39.429Z,16.90
2022-07-30T07:40:35.465Z,16.30
2022-07-30T07:41:49.094Z,16.30
2022-07-30T07:42:35.424Z,15.10
2022-07-30T07:43:35.436Z,15.30
2022-07-30T07:44:35.425Z,13.60
2022-07-30T07:45:35.407Z,15.70
2022-07-30T07:46:35.417Z,14.10
2022-07-30T07:47:35.395Z,17.30
2022-07-30T07:48:35.656Z,13.30
2022-07-30T07:49:35.417Z,14.50
2022-07-30T07:50:35.369Z,14.80
2022-07-30T07:51:48.119Z,14.40
2022-07-30T07:52:35.833Z,16.00
2022-07-30T07:53:35.392Z,14.30
2022-07-30T07:54:35.362Z,15.20
2022-07-30T07:55:35.338Z,15.80
2022-07-30T07:56:35.325Z,15.50
2022-07-30T07:57:35.324Z,14.60
2022-07-30T07:58:35.383Z,15.10
2022-07-30T07:59:40.271Z,15.40
2022-07-30T08:00:35.326Z,15.00
2022-07-30T08:01:35.366Z,13.50
2022-07-30T08:02:35.389Z,12.00
2022-07-30T08:03:35.415Z,14.20
2022-07-30T08:04:35.301Z,14.20
2022-07-30T08:05:55.822Z,15.00
2022-07-30T08:06:36.177Z,12.30
2022-07-30T08:07:35.254Z,13.30
2022-07-30T08:08:35.256Z,15.80
2022-07-30T08:09:40.854Z,14.00
2022-07-30T08:10:35.554Z,14.40
2022-07-30T08:11:35.244Z,14.10
2022-07-30T08:12:35.267Z,13.90
2022-07-30T08:13:51.895Z,15.10
2022-07-30T08:14:35.410Z,15.90
2022-07-30T08:15:36.074Z,13.90
2022-07-30T08:16:35.296Z,12.10
2022-07-30T08:17:35.455Z,11.90
2022-07-30T08:18:35.208Z,12.50
2022-07-30T08:19:35.266Z,12.80
2022-07-30T08:20:35.223Z,13.10
2022-07-30T08:21:35.242Z,12.60
2022-07-30T08:22:35.153Z,13.30
2022-07-30T08:23:37.001Z,12.80
2022-07-30T08:24:35.230Z,17.70
2022-07-30T08:25:35.294Z,12.20
2022-07-30T08:26:35.471Z,13.40
2022-07-30T08:27:35.134Z,14.30
2022-07-30T08:28:36.587Z,9.90
2022-07-30T08:29:35.133Z,12.20
2022-07-30T08:31:35.180Z,14.80
2022-07-30T08:32:35.153Z,14.30
2022-07-30T08:33:35.152Z,12.80
2022-07-30T08:34:35.834Z,14.00
2022-07-30T08:35:35.412Z,13.70
2022-07-30T08:36:35.195Z,13.50
2022-07-30T08:37:35.063Z,13.40
2022-07-30T08:38:35.712Z,13.20
2022-07-30T08:39:35.052Z,12.60
2022-07-30T08:40:35.191Z,11.90
2022-07-30T08:41:35.465Z,12.00
2022-07-30T08:42:35.762Z,11.40
2022-07-30T08:43:35.013Z,10.80
2022-07-30T08:44:35.012Z,14.10
2022-07-30T08:45:35.449Z,11.90
2022-07-30T08:46:35.563Z,13.00
2022-07-30T08:47:34.992Z,14.10
2022-07-30T08:48:35.972Z,13.10
2022-07-30T08:49:34.981Z,14.80
2022-07-30T08:50:35.039Z,12.80
2022-07-30T08:51:34.961Z,12.60
2022-07-30T08:52:35.421Z,13.90
2022-07-30T08:53:34.942Z,12.80
2022-07-30T08:54:35.172Z,11.00
2022-07-30T08:55:35.171Z,11.00
2022-07-30T08:56:34.983Z,13.30
2022-07-30T08:57:34.930Z,11.20
2022-07-30T08:58:34.934Z,12.10
2022-07-30T08:59:52.959Z,13.00
2022-07-30T09:00:34.911Z,13.30
2022-07-30T09:01:35.121Z,12.30
2022-07-30T09:02:34.901Z,13.80
2022-07-30T09:03:34.889Z,15.50
2022-07-30T09:04:34.873Z,12.10
2022-07-30T09:05:34.892Z,13.70
2022-07-30T09:06:34.852Z,12.90
2022-07-30T09:07:34.862Z,11.00
2022-07-30T09:08:34.842Z,12.90
2022-07-30T09:09:34.841Z,11.00
2022-07-30T09:10:34.855Z,12.80
2022-07-30T09:11:34.839Z,13.50
2022-07-30T09:12:34.833Z,12.20
2022-07-30T09:13:35.698Z,12.90
2022-07-30T09:14:34.811Z,12.00
2022-07-30T09:15:34.832Z,12.30
2022-07-30T09:16:34.812Z,12.20
2022-07-30T09:17:34.881Z,11.60
2022-07-30T09:18:34.804Z,14.40
2022-07-30T09:19:34.786Z,14.30
2022-07-30T09:20:34.792Z,14.20
2022-07-30T09:21:34.762Z,15.40
2022-07-30T09:22:34.750Z,12.20
2022-07-30T09:23:34.740Z,13.00
2022-07-30T09:24:34.754Z,14.70
2022-07-30T09:25:34.743Z,13.80
2022-07-30T09:26:34.740Z,13.90
2022-07-30T09:27:34.751Z,12.20
2022-07-30T09:28:34.712Z,13.30
2022-07-30T09:29:35.532Z,13.60
2022-07-30T09:30:34.700Z,11.90
2022-07-30T09:31:34.746Z,13.00
2022-07-30T09:32:34.710Z,13.60
2022-07-30T09:33:34.701Z,15.10
2022-07-30T09:34:34.751Z,11.90
2022-07-30T09:35:34.770Z,12.50
2022-07-30T09:36:34.833Z,14.90
2022-07-30T09:37:34.689Z,15.00
2022-07-30T09:38:34.919Z,17.10
2022-07-30T09:39:34.642Z,14.40
2022-07-30T09:40:34.638Z,15.90
2022-07-30T09:41:39.593Z,15.40
2022-07-30T09:42:34.638Z,14.60
2022-07-30T09:43:34.619Z,14.90
2022-07-30T09:44:34.629Z,15.60
2022-07-30T09:45:35.176Z,16.10
2022-07-30T09:46:34.620Z,13.00
2022-07-30T09:47:34.601Z,11.00
2022-07-30T09:48:34.581Z,13.60
2022-07-30T09:49:34.572Z,15.10
2022-07-30T09:50:34.561Z,12.00
2022-07-30T09:51:54.291Z,16.00
2022-07-30T09:52:34.571Z,14.40
2022-07-30T09:53:34.562Z,15.30
2022-07-30T09:54:34.530Z,11.60
2022-07-30T09:55:34.591Z,11.90
2022-07-30T09:56:34.548Z,13.30
2022-07-30T09:57:34.579Z,15.90
2022-07-30T09:58:34.520Z,17.00
2022-07-30T09:59:35.559Z,15.50
2022-07-30T10:00:34.523Z,19.00
2022-07-30T10:01:49.546Z,19.10
2022-07-30T10:02:34.520Z,20.40
2022-07-30T10:03:42.100Z,20.40
2022-07-30T10:04:34.481Z,19.20
2022-07-30T10:05:34.489Z,16.70
2022-07-30T10:06:34.647Z,18.30
2022-07-30T10:07:43.696Z,20.90
2022-07-30T10:08:34.810Z,23.10
2022-07-30T10:09:37.286Z,21.60
2022-07-30T10:10:34.438Z,17.10
2022-07-30T10:11:34.499Z,16.60
2022-07-30T10:12:34.549Z,19.70
2022-07-30T10:13:34.989Z,22.60
2022-07-30T10:14:34.419Z,26.20
2022-07-30T10:15:34.965Z,25.40
2022-07-30T10:16:34.749Z,20.60
2022-07-30T10:17:34.754Z,18.70
2022-07-30T10:18:34.387Z,22.10
2022-07-30T10:19:40.346Z,18.00
2022-07-30T10:20:35.151Z,19.60
2022-07-30T10:21:36.041Z,19.60
2022-07-30T10:22:34.378Z,20.60
2022-07-30T10:23:34.438Z,23.20
2022-07-30T10:24:34.402Z,18.20
2022-07-30T10:25:35.212Z,15.40
2022-07-30T10:26:35.209Z,13.60
2022-07-30T10:27:34.459Z,13.70
2022-07-30T10:28:39.369Z,17.10
2022-07-30T10:29:34.481Z,12.90
2022-07-30T10:30:34.620Z,12.80
2022-07-30T10:31:48.229Z,17.70
2022-07-30T10:32:35.120Z,16.80
2022-07-30T10:33:40.227Z,20.00
2022-07-30T10:34:34.558Z,18.00
2022-07-30T10:35:38.363Z,17.60
2022-07-30T10:36:34.298Z,16.80
2022-07-30T10:37:34.259Z,16.60
2022-07-30T10:38:39.090Z,18.40
2022-07-30T10:39:34.747Z,16.00
2022-07-30T10:40:34.778Z,18.40
2022-07-30T10:41:43.179Z,18.60
2022-07-30T10:42:34.957Z,16.50
2022-07-30T10:43:34.337Z,20.00
2022-07-30T10:44:34.219Z,16.50
2022-07-30T10:45:34.310Z,16.30
2022-07-30T10:46:34.209Z,17.70
2022-07-30T10:47:40.205Z,18.10
2022-07-30T10:48:34.272Z,17.00
2022-07-30T10:49:40.534Z,16.10
2022-07-30T10:50:34.215Z,15.20
2022-07-30T10:51:34.782Z,15.00
2022-07-30T10:52:34.167Z,14.40
2022-07-30T10:53:34.150Z,20.50
2022-07-30T10:54:36.528Z,18.90
2022-07-30T10:55:38.968Z,21.40
2022-07-30T10:56:34.137Z,22.20
2022-07-30T10:57:41.536Z,15.30
2022-07-30T10:58:34.149Z,16.60
2022-07-30T10:59:34.157Z,19.60
2022-07-30T11:00:34.554Z,18.60
2022-07-30T11:01:34.089Z,15.30
2022-07-30T11:02:34.617Z,14.40
2022-07-30T11:03:41.104Z,14.30
2022-07-30T11:04:34.068Z,13.30
2022-07-30T11:05:44.800Z,14.30
2022-07-30T11:06:34.070Z,11.40
2022-07-30T11:07:34.068Z,12.50
2022-07-30T11:08:35.887Z,13.30
2022-07-30T11:09:34.139Z,12.90
2022-07-30T11:10:34.878Z,12.60
2022-07-30T11:12:13.364Z,13.50
2022-07-30T11:12:34.056Z,12.50
2022-07-30T11:13:36.283Z,12.40
2022-07-30T11:14:35.009Z,11.10
2022-07-30T11:15:33.997Z,11.40
2022-07-30T11:16:33.998Z,14.00
2022-07-30T11:17:33.999Z,11.90
2022-07-30T11:18:34.758Z,11.60
2022-07-30T11:19:56.923Z,11.50
2022-07-30T11:20:34.009Z,10.60
2022-07-30T11:21:34.103Z,10.40
2022-07-30T11:22:33.978Z,11.60
2022-07-30T11:23:35.497Z,12.40
2022-07-30T11:24:34.010Z,10.20
2022-07-30T11:25:49.910Z,11.20
2022-07-30T11:26:33.960Z,13.00
2022-07-30T11:27:36.203Z,9.90
2022-07-30T11:28:34.208Z,11.30
2022-07-30T11:29:33.929Z,11.00
2022-07-30T11:30:33.910Z,11.50
2022-07-30T11:31:54.991Z,11.40
2022-07-30T11:32:34.341Z,10.60
2022-07-30T11:33:34.080Z,11.80
2022-07-30T11:34:33.890Z,11.10
2022-07-30T11:35:35.246Z,10.40
2022-07-30T11:36:33.871Z,10.60
2022-07-30T11:37:33.874Z,13.60
2022-07-30T11:38:34.088Z,9.60
2022-07-30T11:39:39.420Z,12.50
2022-07-30T11:40:33.855Z,11.70
2022-07-30T11:41:33.981Z,9.20
2022-07-30T11:42:33.842Z,7.80
2022-07-30T11:43:36.025Z,9.40
2022-07-30T11:44:34.661Z,8.60
2022-07-30T11:45:33.834Z,10.00
2022-07-30T11:46:33.836Z,10.30
2022-07-30T11:47:33.823Z,12.30
2022-07-30T11:48:33.831Z,10.80
2022-07-30T11:49:33.866Z,10.80
2022-07-30T11:50:34.112Z,11.10
2022-07-30T11:51:33.795Z,10.50
2022-07-30T11:52:33.819Z,9.60
2022-07-30T11:53:34.817Z,11.10
2022-07-30T11:54:33.830Z,8.90
2022-07-30T11:55:33.768Z,10.50
2022-07-30T11:56:33.760Z,11.60
2022-07-30T11:57:38.295Z,11.90
2022-07-30T11:58:34.385Z,10.10
2022-07-30T11:59:33.824Z,9.90
2022-07-30T12:00:33.739Z,10.40
2022-07-30T12:01:33.730Z,12.60
2022-07-30T12:02:33.840Z,10.40
2022-07-30T12:03:33.896Z,10.40
2022-07-30T12:04:33.831Z,10.30
2022-07-30T12:05:33.871Z,12.20
2022-07-30T12:06:33.706Z,11.20
2022-07-30T12:07:33.692Z,9.90
2022-07-30T12:08:35.962Z,10.00
2022-07-30T12:09:33.958Z,10.00
2022-07-30T12:10:33.934Z,8.20
2022-07-30T12:11:33.691Z,10.40
2022-07-30T12:12:33.691Z,12.50
2022-07-30T12:13:45.420Z,10.10
2022-07-30T12:14:34.372Z,11.30
2022-07-30T12:15:33.662Z,11.00
2022-07-30T12:16:33.661Z,12.10
2022-07-30T12:17:33.643Z,13.20
2022-07-30T12:18:34.103Z,11.60
2022-07-30T12:19:33.653Z,12.60
2022-07-30T12:20:33.827Z,12.20
2022-07-30T12:21:33.614Z,11.50
2022-07-30T12:22:33.611Z,12.00
2022-07-30T12:23:33.612Z,10.70
2022-07-30T12:24:33.602Z,12.90
2022-07-30T12:25:33.680Z,12.40
2022-07-30T12:26:33.591Z,11.40
2022-07-30T12:27:34.275Z,12.00
2022-07-30T12:28:33.611Z,10.30
2022-07-30T12:29:33.573Z,10.20
2022-07-30T12:30:33.581Z,11.80
2022-07-30T12:31:33.604Z,13.10
2022-07-30T12:32:33.603Z,12.60
2022-07-30T12:33:33.544Z,10.70
2022-07-30T12:34:34.503Z,10.30
2022-07-30T12:35:33.943Z,10.00
2022-07-30T12:36:33.534Z,11.10
2022-07-30T12:37:33.534Z,11.80
2022-07-30T12:38:33.513Z,12.60
2022-07-30T12:39:33.535Z,11.00
2022-07-30T12:40:33.504Z,12.10
2022-07-30T12:41:33.519Z,13.10
2022-07-30T12:42:33.493Z,10.40
2022-07-30T12:43:33.485Z,11.30
2022-07-30T12:44:33.787Z,11.10
2022-07-30T12:45:51.512Z,9.10
2022-07-30T12:46:33.573Z,9.80
2022-07-30T12:47:33.455Z,10.40
2022-07-30T12:48:33.624Z,11.10
2022-07-30T12:49:37.692Z,12.50
2022-07-30T12:50:33.595Z,10.60
2022-07-30T12:51:33.458Z,12.40
2022-07-30T12:52:34.504Z,9.60
2022-07-30T12:53:33.434Z,11.50
2022-07-30T12:54:33.504Z,9.90